sensor_id;sensor_type;location;lat;lon;timestamp;P1;P2;P0
74086;PMS7003;62445;48.406;-4.518;2023-02-05T00:00:59;9.00;9.00;7.25
74086;PMS7003;62445;48.406;-4.518;2023-02-05T00:03:25;8.00;8.00;6.75
74086;PMS7003;62445;48.406;-4.518;2023-02-05T00:05:50;8.50;8.00;7.25
74086;PMS7003;62445;48.406;-4.518;2023-02-05T00:08:15;7.50;7.50;5.50
74086;PMS7003;62445;48.406;-4.518;2023-02-05T00:10:41;7.75;7.75;5.75
74086;PMS7003;62445;48.406;-4.518;2023-02-05T00:13:06;10.25;9.25;7.00
74086;PMS7003;62445;48.406;-4.518;2023-02-05T00:15:33;9.50;8.50;7.25
74086;PMS7003;62445;48.406;-4.518;2023-02-05T00:17:59;8.25;8.00;6.75
74086;PMS7003;62445;48.406;-4.518;2023-02-05T00:20:25;8.50;8.50;6.50
74086;PMS7003;62445;48.406;-4.518;2023-02-05T00:22:50;4.75;4.75;3.25
74086;PMS7003;62445;48.406;-4.518;2023-02-05T00:25:16;7.50;7.25;6.25
74086;PMS7003;62445;48.406;-4.518;2023-02-05T00:27:41;8.50;7.75;6.00
74086;PMS7003;62445;48.406;-4.518;2023-02-05T00:30:07;10.50;8.25;7.00
74086;PMS7003;62445;48.406;-4.518;2023-02-05T00:32:33;8.75;6.75;5.00
74086;PMS7003;62445;48.406;-4.518;2023-02-05T00:34:58;8.25;8.25;6.50
74086;PMS7003;62445;48.406;-4.518;2023-02-05T00:37:24;6.75;6.75;5.50
74086;PMS7003;62445;48.406;-4.518;2023-02-05T00:39:49;7.50;7.50;7.25
74086;PMS7003;62445;48.406;-4.518;2023-02-05T00:42:14;8.50;8.50;7.50
74086;PMS7003;62445;48.406;-4.518;2023-02-05T00:44:40;10.25;10.00;8.50
74086;PMS7003;62445;48.406;-4.518;2023-02-05T00:47:05;8.50;8.00;5.75
74086;PMS7003;62445;48.406;-4.518;2023-02-05T00:49:31;9.00;8.50;7.25
74086;PMS7003;62445;48.406;-4.518;2023-02-05T00:51:56;8.00;8.00;7.00
74086;PMS7003;62445;48.406;-4.518;2023-02-05T00:54:21;7.75;7.25;6.25
74086;PMS7003;62445;48.406;-4.518;2023-02-05T00:56:47;10.00;8.00;7.00
74086;PMS7003;62445;48.406;-4.518;2023-02-05T00:59:12;10.50;8.50;7.00
74086;PMS7003;62445;48.406;-4.518;2023-02-05T01:01:38;9.25;8.75;7.00
74086;PMS7003;62445;48.406;-4.518;2023-02-05T01:04:03;9.25;9.25;8.00
74086;PMS7003;62445;48.406;-4.518;2023-02-05T01:06:29;7.25;7.25;6.75
74086;PMS7003;62445;48.406;-4.518;2023-02-05T01:08:54;8.00;8.00;6.75
74086;PMS7003;62445;48.406;-4.518;2023-02-05T01:11:19;9.75;8.75;6.50
74086;PMS7003;62445;48.406;-4.518;2023-02-05T01:13:45;10.00;8.25;6.50
74086;PMS7003;62445;48.406;-4.518;2023-02-05T01:16:10;7.75;7.75;6.75
74086;PMS7003;62445;48.406;-4.518;2023-02-05T01:18:36;9.50;9.50;7.75
74086;PMS7003;62445;48.406;-4.518;2023-02-05T01:21:01;9.00;8.25;6.25
74086;PMS7003;62445;48.406;-4.518;2023-02-05T01:23:27;6.75;6.75;6.00
74086;PMS7003;62445;48.406;-4.518;2023-02-05T01:25:52;9.25;9.00;7.50
74086;PMS7003;62445;48.406;-4.518;2023-02-05T01:28:18;14.25;10.25;8.00
74086;PMS7003;62445;48.406;-4.518;2023-02-05T01:30:47;10.25;10.25;7.50
74086;PMS7003;62445;48.406;-4.518;2023-02-05T01:33:13;10.00;10.00;7.75
74086;PMS7003;62445;48.406;-4.518;2023-02-05T01:35:39;8.50;8.50;6.75
74086;PMS7003;62445;48.406;-4.518;2023-02-05T01:38:06;10.00;10.00;7.50
74086;PMS7003;62445;48.406;-4.518;2023-02-05T01:40:32;9.50;9.50;7.75
74086;PMS7003;62445;48.406;-4.518;2023-02-05T01:42:57;10.75;9.25;7.50
74086;PMS7003;62445;48.406;-4.518;2023-02-05T01:47:59;12.25;9.75;8.50
74086;PMS7003;62445;48.406;-4.518;2023-02-05T01:50:47;9.50;8.50;7.25
74086;PMS7003;62445;48.406;-4.518;2023-02-05T01:53:23;8.50;8.50;6.50
74086;PMS7003;62445;48.406;-4.518;2023-02-05T01:55:54;9.75;9.75;7.50
74086;PMS7003;62445;48.406;-4.518;2023-02-05T01:58:26;8.50;8.50;6.50
74086;PMS7003;62445;48.406;-4.518;2023-02-05T02:00:56;11.50;10.50;7.50
74086;PMS7003;62445;48.406;-4.518;2023-02-05T02:03:21;9.75;8.75;7.25
74086;PMS7003;62445;48.406;-4.518;2023-02-05T02:05:49;8.50;8.50;7.25
74086;PMS7003;62445;48.406;-4.518;2023-02-05T02:08:15;10.25;8.75;7.25
74086;PMS7003;62445;48.406;-4.518;2023-02-05T02:10:41;11.50;10.00;7.75
74086;PMS7003;62445;48.406;-4.518;2023-02-05T02:13:10;9.75;9.25;7.75
74086;PMS7003;62445;48.406;-4.518;2023-02-05T02:15:37;7.75;7.75;6.75
74086;PMS7003;62445;48.406;-4.518;2023-02-05T02:18:04;5.25;5.25;4.50
74086;PMS7003;62445;48.406;-4.518;2023-02-05T02:29:37;10.00;10.00;8.25
74086;PMS7003;62445;48.406;-4.518;2023-02-05T02:32:44;9.25;8.25;6.50
74086;PMS7003;62445;48.406;-4.518;2023-02-05T02:35:24;8.50;8.50;7.75
74086;PMS7003;62445;48.406;-4.518;2023-02-05T02:38:02;13.75;10.00;7.50
74086;PMS7003;62445;48.406;-4.518;2023-02-05T02:40:37;10.50;9.75;8.00
74086;PMS7003;62445;48.406;-4.518;2023-02-05T02:45:45;10.25;10.25;8.50
74086;PMS7003;62445;48.406;-4.518;2023-02-05T02:48:15;12.75;10.25;8.25
74086;PMS7003;62445;48.406;-4.518;2023-02-05T02:50:44;9.50;8.25;7.00
74086;PMS7003;62445;48.406;-4.518;2023-02-05T02:53:15;8.00;8.00;7.00
74086;PMS7003;62445;48.406;-4.518;2023-02-05T02:55:43;11.25;10.25;7.75
74086;PMS7003;62445;48.406;-4.518;2023-02-05T02:58:22;12.25;8.75;8.00
74086;PMS7003;62445;48.406;-4.518;2023-02-05T03:00:51;12.75;10.50;8.50
74086;PMS7003;62445;48.406;-4.518;2023-02-05T03:03:19;8.75;8.75;7.75
74086;PMS7003;62445;48.406;-4.518;2023-02-05T03:05:47;10.00;9.25;8.00
74086;PMS7003;62445;48.406;-4.518;2023-02-05T03:08:27;9.25;9.25;8.25
74086;PMS7003;62445;48.406;-4.518;2023-02-05T03:11:03;10.00;10.00;8.25
74086;PMS7003;62445;48.406;-4.518;2023-02-05T03:13:32;9.25;8.50;7.50
74086;PMS7003;62445;48.406;-4.518;2023-02-05T03:15:58;9.50;9.25;7.75
74086;PMS7003;62445;48.406;-4.518;2023-02-05T03:18:24;10.75;10.00;8.50
74086;PMS7003;62445;48.406;-4.518;2023-02-05T03:20:54;8.00;8.00;6.50
74086;PMS7003;62445;48.406;-4.518;2023-02-05T03:23:25;10.75;9.25;8.00
74086;PMS7003;62445;48.406;-4.518;2023-02-05T03:25:51;8.75;8.75;7.50
74086;PMS7003;62445;48.406;-4.518;2023-02-05T03:28:17;12.50;9.50;7.75
74086;PMS7003;62445;48.406;-4.518;2023-02-05T03:36:23;9.25;9.25;7.50
74086;PMS7003;62445;48.406;-4.518;2023-02-05T03:41:27;13.00;10.75;8.75
74086;PMS7003;62445;48.406;-4.518;2023-02-05T03:44:45;8.25;8.25;7.25
74086;PMS7003;62445;48.406;-4.518;2023-02-05T03:56:07;11.25;9.50;8.25
74086;PMS7003;62445;48.406;-4.518;2023-02-05T03:58:41;8.00;7.25;6.00
74086;PMS7003;62445;48.406;-4.518;2023-02-05T04:01:09;7.50;7.50;6.50
74086;PMS7003;62445;48.406;-4.518;2023-02-05T04:03:36;10.75;8.75;8.00
74086;PMS7003;62445;48.406;-4.518;2023-02-05T04:06:02;8.00;8.00;7.00
74086;PMS7003;62445;48.406;-4.518;2023-02-05T04:08:28;8.25;8.25;6.75
74086;PMS7003;62445;48.406;-4.518;2023-02-05T04:10:53;8.25;8.25;6.75
74086;PMS7003;62445;48.406;-4.518;2023-02-05T04:13:19;7.25;7.25;6.00
74086;PMS7003;62445;48.406;-4.518;2023-02-05T04:15:44;8.75;8.00;6.75
74086;PMS7003;62445;48.406;-4.518;2023-02-05T04:18:12;8.75;7.75;5.25
74086;PMS7003;62445;48.406;-4.518;2023-02-05T04:20:38;8.00;8.00;6.75
74086;PMS7003;62445;48.406;-4.518;2023-02-05T04:23:03;9.25;8.50;7.25
74086;PMS7003;62445;48.406;-4.518;2023-02-05T04:25:29;8.50;8.50;6.50
74086;PMS7003;62445;48.406;-4.518;2023-02-05T04:27:54;4.25;4.25;3.50
74086;PMS7003;62445;48.406;-4.518;2023-02-05T04:30:19;7.50;6.00;5.50
74086;PMS7003;62445;48.406;-4.518;2023-02-05T04:32:45;6.75;6.75;5.25
74086;PMS7003;62445;48.406;-4.518;2023-02-05T04:35:10;9.25;7.50;6.50
74086;PMS7003;62445;48.406;-4.518;2023-02-05T04:37:36;7.50;7.50;6.75
74086;PMS7003;62445;48.406;-4.518;2023-02-05T04:40:01;8.50;8.50;7.50
74086;PMS7003;62445;48.406;-4.518;2023-02-05T04:42:27;8.50;7.25;6.25
74086;PMS7003;62445;48.406;-4.518;2023-02-05T04:44:52;10.50;7.75;6.50
74086;PMS7003;62445;48.406;-4.518;2023-02-05T04:47:18;6.75;6.50;6.00
74086;PMS7003;62445;48.406;-4.518;2023-02-05T04:49:44;7.75;7.75;6.50
74086;PMS7003;62445;48.406;-4.518;2023-02-05T04:52:09;9.50;8.00;7.25
74086;PMS7003;62445;48.406;-4.518;2023-02-05T04:54:38;7.50;7.50;5.25
74086;PMS7003;62445;48.406;-4.518;2023-02-05T04:57:03;7.50;6.75;6.50
74086;PMS7003;62445;48.406;-4.518;2023-02-05T04:59:29;7.25;7.25;6.25
74086;PMS7003;62445;48.406;-4.518;2023-02-05T05:01:55;10.25;9.00;7.25
74086;PMS7003;62445;48.406;-4.518;2023-02-05T05:04:21;7.25;7.25;6.25
74086;PMS7003;62445;48.406;-4.518;2023-02-05T05:06:47;8.50;7.25;5.25
74086;PMS7003;62445;48.406;-4.518;2023-02-05T05:09:12;8.00;8.00;6.25
74086;PMS7003;62445;48.406;-4.518;2023-02-05T05:11:38;10.75;7.75;6.50
74086;PMS7003;62445;48.406;-4.518;2023-02-05T05:14:03;7.25;7.25;5.50
74086;PMS7003;62445;48.406;-4.518;2023-02-05T05:16:29;7.25;7.25;5.50
74086;PMS7003;62445;48.406;-4.518;2023-02-05T05:18:54;7.75;6.75;6.50
74086;PMS7003;62445;48.406;-4.518;2023-02-05T05:21:20;10.00;8.25;6.50
74086;PMS7003;62445;48.406;-4.518;2023-02-05T05:23:45;5.00;5.00;4.50
74086;PMS7003;62445;48.406;-4.518;2023-02-05T05:26:11;7.75;7.75;7.00
74086;PMS7003;62445;48.406;-4.518;2023-02-05T05:28:37;8.75;6.50;5.00
74086;PMS7003;62445;48.406;-4.518;2023-02-05T05:31:10;8.50;7.50;6.25
74086;PMS7003;62445;48.406;-4.518;2023-02-05T05:33:38;9.25;7.75;6.75
74086;PMS7003;62445;48.406;-4.518;2023-02-05T05:36:04;4.50;4.50;4.00
74086;PMS7003;62445;48.406;-4.518;2023-02-05T05:38:30;8.25;7.50;6.75
74086;PMS7003;62445;48.406;-4.518;2023-02-05T05:40:56;8.25;8.25;7.25
74086;PMS7003;62445;48.406;-4.518;2023-02-05T05:43:40;8.75;7.00;4.75
74086;PMS7003;62445;48.406;-4.518;2023-02-05T05:46:12;6.00;6.00;4.75
74086;PMS7003;62445;48.406;-4.518;2023-02-05T05:48:39;7.25;6.75;5.25
74086;PMS7003;62445;48.406;-4.518;2023-02-05T05:51:05;6.25;6.25;5.25
74086;PMS7003;62445;48.406;-4.518;2023-02-05T05:53:30;6.75;6.25;5.00
74086;PMS7003;62445;48.406;-4.518;2023-02-05T05:55:56;7.00;7.00;5.25
74086;PMS7003;62445;48.406;-4.518;2023-02-05T05:58:22;4.25;4.25;3.75
74086;PMS7003;62445;48.406;-4.518;2023-02-05T06:00:47;7.25;7.25;5.50
74086;PMS7003;62445;48.406;-4.518;2023-02-05T06:03:13;7.75;7.75;5.75
74086;PMS7003;62445;48.406;-4.518;2023-02-05T06:05:38;6.50;6.50;5.00
74086;PMS7003;62445;48.406;-4.518;2023-02-05T06:08:04;5.25;5.25;4.50
74086;PMS7003;62445;48.406;-4.518;2023-02-05T06:10:30;5.25;5.25;5.00
74086;PMS7003;62445;48.406;-4.518;2023-02-05T06:12:57;6.50;6.50;6.25
74086;PMS7003;62445;48.406;-4.518;2023-02-05T06:15:22;8.50;8.50;6.75
74086;PMS7003;62445;48.406;-4.518;2023-02-05T06:17:48;6.25;6.25;4.50
74086;PMS7003;62445;48.406;-4.518;2023-02-05T06:20:13;8.00;7.00;6.00
74086;PMS7003;62445;48.406;-4.518;2023-02-05T06:22:39;7.50;7.50;5.25
74086;PMS7003;62445;48.406;-4.518;2023-02-05T06:25:05;6.25;6.00;4.75
74086;PMS7003;62445;48.406;-4.518;2023-02-05T06:27:31;5.25;5.25;4.50
74086;PMS7003;62445;48.406;-4.518;2023-02-05T06:29:57;7.00;6.50;5.00
74086;PMS7003;62445;48.406;-4.518;2023-02-05T06:32:22;7.00;7.00;5.00
74086;PMS7003;62445;48.406;-4.518;2023-02-05T06:34:48;7.75;6.25;5.00
74086;PMS7003;62445;48.406;-4.518;2023-02-05T06:37:13;8.50;8.25;6.25
74086;PMS7003;62445;48.406;-4.518;2023-02-05T06:39:38;11.75;8.75;6.25
74086;PMS7003;62445;48.406;-4.518;2023-02-05T06:42:04;7.75;6.50;5.00
74086;PMS7003;62445;48.406;-4.518;2023-02-05T06:44:30;7.75;6.25;5.75
74086;PMS7003;62445;48.406;-4.518;2023-02-05T06:46:56;4.50;4.50;4.25
74086;PMS7003;62445;48.406;-4.518;2023-02-05T06:49:21;5.00;5.00;4.25
74086;PMS7003;62445;48.406;-4.518;2023-02-05T06:51:46;5.00;5.00;4.25
74086;PMS7003;62445;48.406;-4.518;2023-02-05T06:54:12;7.25;7.25;6.25
74086;PMS7003;62445;48.406;-4.518;2023-02-05T06:56:37;5.50;5.50;5.00
74086;PMS7003;62445;48.406;-4.518;2023-02-05T06:59:03;6.25;6.25;6.00
74086;PMS7003;62445;48.406;-4.518;2023-02-05T07:01:28;8.50;6.50;5.25
74086;PMS7003;62445;48.406;-4.518;2023-02-05T07:03:54;5.00;4.50;4.00
74086;PMS7003;62445;48.406;-4.518;2023-02-05T07:06:20;6.75;6.75;5.25
74086;PMS7003;62445;48.406;-4.518;2023-02-05T07:08:47;6.75;6.25;5.00
74086;PMS7003;62445;48.406;-4.518;2023-02-05T07:11:14;6.25;5.00;4.00
74086;PMS7003;62445;48.406;-4.518;2023-02-05T07:13:40;9.25;7.50;6.25
74086;PMS7003;62445;48.406;-4.518;2023-02-05T07:16:05;7.25;5.25;4.25
74086;PMS7003;62445;48.406;-4.518;2023-02-05T07:18:32;5.75;5.75;5.00
74086;PMS7003;62445;48.406;-4.518;2023-02-05T07:20:58;7.00;5.25;4.25
74086;PMS7003;62445;48.406;-4.518;2023-02-05T07:23:24;5.25;4.50;4.00
74086;PMS7003;62445;48.406;-4.518;2023-02-05T07:25:49;7.25;6.75;4.25
74086;PMS7003;62445;48.406;-4.518;2023-02-05T07:28:15;7.00;7.00;4.50
74086;PMS7003;62445;48.406;-4.518;2023-02-05T07:30:40;5.00;5.00;4.00
74086;PMS7003;62445;48.406;-4.518;2023-02-05T07:33:06;7.25;5.50;4.50
74086;PMS7003;62445;48.406;-4.518;2023-02-05T07:35:32;7.25;6.50;5.25
74086;PMS7003;62445;48.406;-4.518;2023-02-05T07:38:02;6.50;5.00;4.25
74086;PMS7003;62445;48.406;-4.518;2023-02-05T07:40:28;5.75;5.25;4.00
74086;PMS7003;62445;48.406;-4.518;2023-02-05T07:42:53;5.25;5.25;5.00
74086;PMS7003;62445;48.406;-4.518;2023-02-05T07:45:19;5.25;5.25;5.00
74086;PMS7003;62445;48.406;-4.518;2023-02-05T07:47:45;7.50;5.75;4.50
74086;PMS7003;62445;48.406;-4.518;2023-02-05T07:50:13;7.75;7.75;6.25
74086;PMS7003;62445;48.406;-4.518;2023-02-05T07:52:39;6.00;5.25;4.25
74086;PMS7003;62445;48.406;-4.518;2023-02-05T07:55:05;5.00;5.00;4.25
74086;PMS7003;62445;48.406;-4.518;2023-02-05T07:57:30;6.25;4.25;4.25
74086;PMS7003;62445;48.406;-4.518;2023-02-05T07:59:56;6.25;5.75;4.75
74086;PMS7003;62445;48.406;-4.518;2023-02-05T08:02:21;7.00;5.25;4.25
74086;PMS7003;62445;48.406;-4.518;2023-02-05T08:04:46;7.75;7.25;6.25
74086;PMS7003;62445;48.406;-4.518;2023-02-05T08:07:12;6.25;6.25;5.00
74086;PMS7003;62445;48.406;-4.518;2023-02-05T08:09:38;6.00;4.00;3.00
74086;PMS7003;62445;48.406;-4.518;2023-02-05T08:12:04;6.25;6.25;5.00
74086;PMS7003;62445;48.406;-4.518;2023-02-05T08:14:30;4.25;4.25;4.00
74086;PMS7003;62445;48.406;-4.518;2023-02-05T08:16:55;7.00;6.25;4.75
74086;PMS7003;62445;48.406;-4.518;2023-02-05T08:19:22;7.00;5.00;4.50
74086;PMS7003;62445;48.406;-4.518;2023-02-05T08:21:48;5.50;5.00;4.25
74086;PMS7003;62445;48.406;-4.518;2023-02-05T08:24:14;5.25;5.25;4.00
74086;PMS7003;62445;48.406;-4.518;2023-02-05T08:26:39;6.25;5.75;4.25
74086;PMS7003;62445;48.406;-4.518;2023-02-05T08:29:05;5.25;5.25;4.25
74086;PMS7003;62445;48.406;-4.518;2023-02-05T08:31:32;5.25;5.25;4.50
74086;PMS7003;62445;48.406;-4.518;2023-02-05T08:33:59;7.25;4.75;4.25
74086;PMS7003;62445;48.406;-4.518;2023-02-05T08:36:24;6.75;5.00;4.50
74086;PMS7003;62445;48.406;-4.518;2023-02-05T08:38:50;6.75;5.25;5.00
74086;PMS7003;62445;48.406;-4.518;2023-02-05T08:41:16;7.50;7.50;5.25
74086;PMS7003;62445;48.406;-4.518;2023-02-05T08:43:45;6.75;6.75;5.00
74086;PMS7003;62445;48.406;-4.518;2023-02-05T08:46:14;5.00;4.75;4.25
74086;PMS7003;62445;48.406;-4.518;2023-02-05T08:48:42;4.00;4.00;3.50
74086;PMS7003;62445;48.406;-4.518;2023-02-05T08:51:08;6.00;4.75;3.75
74086;PMS7003;62445;48.406;-4.518;2023-02-05T08:53:35;7.00;7.00;5.00
74086;PMS7003;62445;48.406;-4.518;2023-02-05T08:56:01;6.75;6.50;4.25
74086;PMS7003;62445;48.406;-4.518;2023-02-05T08:58:29;7.00;4.75;4.00
74086;PMS7003;62445;48.406;-4.518;2023-02-05T09:00:59;6.25;6.25;5.00
74086;PMS7003;62445;48.406;-4.518;2023-02-05T09:03:26;5.25;5.25;4.50
74086;PMS7003;62445;48.406;-4.518;2023-02-05T09:05:51;5.00;5.00;4.75
74086;PMS7003;62445;48.406;-4.518;2023-02-05T09:08:17;5.00;5.00;5.00
74086;PMS7003;62445;48.406;-4.518;2023-02-05T09:10:44;4.00;4.00;4.00
74086;PMS7003;62445;48.406;-4.518;2023-02-05T09:13:09;5.75;5.25;4.25
74086;PMS7003;62445;48.406;-4.518;2023-02-05T09:15:39;7.50;6.75;5.00
74086;PMS7003;62445;48.406;-4.518;2023-02-05T09:18:08;7.75;6.25;5.00
74086;PMS7003;62445;48.406;-4.518;2023-02-05T09:20:33;5.75;5.75;4.50
74086;PMS7003;62445;48.406;-4.518;2023-02-05T09:22:59;5.25;4.25;3.25
74086;PMS7003;62445;48.406;-4.518;2023-02-05T09:25:24;7.00;6.25;5.00
74086;PMS7003;62445;48.406;-4.518;2023-02-05T09:27:53;6.50;6.50;5.75
74086;PMS7003;62445;48.406;-4.518;2023-02-05T09:30:18;5.75;5.00;4.50
74086;PMS7003;62445;48.406;-4.518;2023-02-05T09:32:43;5.25;5.25;4.25
74086;PMS7003;62445;48.406;-4.518;2023-02-05T09:35:09;6.50;6.50;5.00
74086;PMS7003;62445;48.406;-4.518;2023-02-05T09:37:34;5.75;5.25;4.00
74086;PMS7003;62445;48.406;-4.518;2023-02-05T09:40:00;5.75;5.25;4.50
74086;PMS7003;62445;48.406;-4.518;2023-02-05T09:42:38;6.50;6.50;5.00
74086;PMS7003;62445;48.406;-4.518;2023-02-05T09:47:42;6.25;6.25;4.50
74086;PMS7003;62445;48.406;-4.518;2023-02-05T09:50:26;6.50;6.50;5.25
74086;PMS7003;62445;48.406;-4.518;2023-02-05T09:52:55;6.25;6.25;5.50
74086;PMS7003;62445;48.406;-4.518;2023-02-05T09:55:29;7.00;5.75;4.50
74086;PMS7003;62445;48.406;-4.518;2023-02-05T09:57:58;7.00;6.75;5.00
74086;PMS7003;62445;48.406;-4.518;2023-02-05T10:00:38;7.00;6.50;5.25
74086;PMS7003;62445;48.406;-4.518;2023-02-05T10:03:18;6.75;6.75;5.75
74086;PMS7003;62445;48.406;-4.518;2023-02-05T10:08:39;8.00;6.75;5.00
74086;PMS7003;62445;48.406;-4.518;2023-02-05T10:11:25;7.75;7.25;6.25
74086;PMS7003;62445;48.406;-4.518;2023-02-05T10:14:09;7.00;6.25;5.00
74086;PMS7003;62445;48.406;-4.518;2023-02-05T10:22:33;7.25;7.25;5.00
74086;PMS7003;62445;48.406;-4.518;2023-02-05T10:25:33;10.00;6.50;5.25
74086;PMS7003;62445;48.406;-4.518;2023-02-05T10:33:44;10.00;9.25;8.00
74086;PMS7003;62445;48.406;-4.518;2023-02-05T10:36:13;11.25;10.25;7.00
74086;PMS7003;62445;48.406;-4.518;2023-02-05T10:38:41;12.25;9.50;8.00
74086;PMS7003;62445;48.406;-4.518;2023-02-05T10:41:13;14.75;10.25;8.25
74086;PMS7003;62445;48.406;-4.518;2023-02-05T10:43:49;9.50;9.00;7.75
74086;PMS7003;62445;48.406;-4.518;2023-02-05T10:46:19;10.00;9.75;7.25
74086;PMS7003;62445;48.406;-4.518;2023-02-05T10:48:45;14.25;11.00;8.00
74086;PMS7003;62445;48.406;-4.518;2023-02-05T10:51:40;13.00;10.25;8.50
74086;PMS7003;62445;48.406;-4.518;2023-02-05T10:54:07;10.00;8.25;6.75
74086;PMS7003;62445;48.406;-4.518;2023-02-05T10:56:47;11.75;10.25;9.00
74086;PMS7003;62445;48.406;-4.518;2023-02-05T10:59:16;10.00;10.00;7.25
74086;PMS7003;62445;48.406;-4.518;2023-02-05T11:01:49;12.25;10.50;8.25
74086;PMS7003;62445;48.406;-4.518;2023-02-05T11:04:16;7.50;7.50;5.00
74086;PMS7003;62445;48.406;-4.518;2023-02-05T11:06:49;11.25;10.75;7.75
74086;PMS7003;62445;48.406;-4.518;2023-02-05T11:14:21;13.00;10.00;7.50
74086;PMS7003;62445;48.406;-4.518;2023-02-05T11:17:18;10.50;9.50;6.25
74086;PMS7003;62445;48.406;-4.518;2023-02-05T11:19:52;7.75;7.75;6.00
74086;PMS7003;62445;48.406;-4.518;2023-02-05T11:22:53;9.75;9.25;6.00
74086;PMS7003;62445;48.406;-4.518;2023-02-05T11:25:13;9.00;9.00;7.25
74086;PMS7003;62445;48.406;-4.518;2023-02-05T11:28:03;10.00;9.00;7.00
74086;PMS7003;62445;48.406;-4.518;2023-02-05T11:40:54;10.00;10.00;6.75
74086;PMS7003;62445;48.406;-4.518;2023-02-05T11:43:24;12.25;8.50;6.50
74086;PMS7003;62445;48.406;-4.518;2023-02-05T11:45:56;9.75;7.25;5.75
74086;PMS7003;62445;48.406;-4.518;2023-02-05T11:51:04;16.00;10.75;7.25
74086;PMS7003;62445;48.406;-4.518;2023-02-05T11:53:31;9.50;9.25;8.25
74086;PMS7003;62445;48.406;-4.518;2023-02-05T11:56:09;11.75;9.00;7.50
74086;PMS7003;62445;48.406;-4.518;2023-02-05T11:58:37;10.75;9.50;6.25
74086;PMS7003;62445;48.406;-4.518;2023-02-05T12:01:04;9.25;9.25;7.50
74086;PMS7003;62445;48.406;-4.518;2023-02-05T12:03:45;5.25;3.00;0.25
74086;PMS7003;62445;48.406;-4.518;2023-02-05T12:06:23;10.75;8.75;7.50
74086;PMS7003;62445;48.406;-4.518;2023-02-05T12:08:54;7.25;7.25;6.25
74086;PMS7003;62445;48.406;-4.518;2023-02-05T12:11:22;8.25;7.25;6.25
74086;PMS7003;62445;48.406;-4.518;2023-02-05T12:25:29;6.00;6.00;4.50
74086;PMS7003;62445;48.406;-4.518;2023-02-05T12:38:54;6.25;5.00;4.00
74086;PMS7003;62445;48.406;-4.518;2023-02-05T12:41:28;8.50;7.50;5.50
74086;PMS7003;62445;48.406;-4.518;2023-02-05T12:44:32;8.00;8.00;6.00
74086;PMS7003;62445;48.406;-4.518;2023-02-05T12:47:19;6.50;6.50;5.25
74086;PMS7003;62445;48.406;-4.518;2023-02-05T12:58:03;5.25;5.00;4.00
74086;PMS7003;62445;48.406;-4.518;2023-02-05T13:00:38;5.50;5.50;4.50
74086;PMS7003;62445;48.406;-4.518;2023-02-05T13:03:21;5.25;5.25;4.00
74086;PMS7003;62445;48.406;-4.518;2023-02-05T13:06:33;5.00;3.00;3.00
74086;PMS7003;62445;48.406;-4.518;2023-02-05T13:09:02;6.75;6.75;5.50
74086;PMS7003;62445;48.406;-4.518;2023-02-05T13:11:40;3.50;3.50;2.75
74086;PMS7003;62445;48.406;-4.518;2023-02-05T13:16:37;5.00;5.00;4.00
74086;PMS7003;62445;48.406;-4.518;2023-02-05T13:28:05;8.00;5.50;4.25
74086;PMS7003;62445;48.406;-4.518;2023-02-05T13:33:59;3.25;3.25;3.25
74086;PMS7003;62445;48.406;-4.518;2023-02-05T13:39:46;5.25;4.75;4.00
74086;PMS7003;62445;48.406;-4.518;2023-02-05T13:42:33;6.50;5.25;4.75
74086;PMS7003;62445;48.406;-4.518;2023-02-05T13:56:51;4.00;3.00;2.00
74086;PMS7003;62445;48.406;-4.518;2023-02-05T13:59:35;3.75;3.50;2.50
74086;PMS7003;62445;48.406;-4.518;2023-02-05T14:02:18;4.00;3.75;3.50
74086;PMS7003;62445;48.406;-4.518;2023-02-05T14:04:57;3.50;3.50;3.25
74086;PMS7003;62445;48.406;-4.518;2023-02-05T14:07:30;3.25;3.25;3.00
74086;PMS7003;62445;48.406;-4.518;2023-02-05T14:10:07;3.50;3.50;3.25
74086;PMS7003;62445;48.406;-4.518;2023-02-05T14:12:47;3.50;3.50;2.00
74086;PMS7003;62445;48.406;-4.518;2023-02-05T14:27:59;4.25;4.25;3.00
74086;PMS7003;62445;48.406;-4.518;2023-02-05T14:35:35;5.00;4.25;3.00
74086;PMS7003;62445;48.406;-4.518;2023-02-05T14:43:39;4.50;4.50;3.50
74086;PMS7003;62445;48.406;-4.518;2023-02-05T14:49:05;6.00;4.25;3.00
74086;PMS7003;62445;48.406;-4.518;2023-02-05T14:51:53;5.00;4.75;4.00
74086;PMS7003;62445;48.406;-4.518;2023-02-05T14:54:28;6.25;6.00;4.00
74086;PMS7003;62445;48.406;-4.518;2023-02-05T14:57:09;4.00;4.00;3.00
74086;PMS7003;62445;48.406;-4.518;2023-02-05T14:59:52;5.00;4.50;3.50
74086;PMS7003;62445;48.406;-4.518;2023-02-05T15:13:21;4.50;3.50;3.50
74086;PMS7003;62445;48.406;-4.518;2023-02-05T15:18:50;4.50;4.50;4.00
74086;PMS7003;62445;48.406;-4.518;2023-02-05T15:26:58;6.00;6.00;4.50
74086;PMS7003;62445;48.406;-4.518;2023-02-05T15:29:44;3.75;3.75;3.50
74086;PMS7003;62445;48.406;-4.518;2023-02-05T15:34:43;4.25;4.25;3.75
74086;PMS7003;62445;48.406;-4.518;2023-02-05T15:37:27;3.50;3.00;2.25
74086;PMS7003;62445;48.406;-4.518;2023-02-05T15:42:27;3.75;3.75;3.00
74086;PMS7003;62445;48.406;-4.518;2023-02-05T15:45:14;4.00;4.00;3.00
74086;PMS7003;62445;48.406;-4.518;2023-02-05T15:50:55;4.00;3.00;3.00
74086;PMS7003;62445;48.406;-4.518;2023-02-05T15:56:23;2.25;2.00;2.00
74086;PMS7003;62445;48.406;-4.518;2023-02-05T15:58:51;3.00;3.00;2.25
74086;PMS7003;62445;48.406;-4.518;2023-02-05T16:01:22;3.50;3.00;2.00
74086;PMS7003;62445;48.406;-4.518;2023-02-05T16:03:48;5.00;4.25;4.00
74086;PMS7003;62445;48.406;-4.518;2023-02-05T16:06:20;5.25;4.50;3.00
74086;PMS7003;62445;48.406;-4.518;2023-02-05T16:08:48;3.00;3.00;2.00
74086;PMS7003;62445;48.406;-4.518;2023-02-05T16:14:11;3.00;3.00;2.50
74086;PMS7003;62445;48.406;-4.518;2023-02-05T16:16:39;3.00;3.00;3.00
74086;PMS7003;62445;48.406;-4.518;2023-02-05T16:19:20;3.50;3.50;2.50
74086;PMS7003;62445;48.406;-4.518;2023-02-05T16:21:54;4.50;4.50;3.25
74086;PMS7003;62445;48.406;-4.518;2023-02-05T16:24:26;6.00;6.00;4.00
74086;PMS7003;62445;48.406;-4.518;2023-02-05T16:29:44;4.00;4.00;3.75
74086;PMS7003;62445;48.406;-4.518;2023-02-05T16:35:03;4.75;4.00;3.25
74086;PMS7003;62445;48.406;-4.518;2023-02-05T16:37:32;3.50;2.00;1.00
74086;PMS7003;62445;48.406;-4.518;2023-02-05T16:39:59;3.25;3.00;3.00
74086;PMS7003;62445;48.406;-4.518;2023-02-05T16:42:40;2.00;2.00;2.00
74086;PMS7003;62445;48.406;-4.518;2023-02-05T16:47:42;4.50;4.50;3.00
74086;PMS7003;62445;48.406;-4.518;2023-02-05T16:53:12;2.25;2.25;2.00
74086;PMS7003;62445;48.406;-4.518;2023-02-05T16:55:42;3.00;3.00;2.00
74086;PMS7003;62445;48.406;-4.518;2023-02-05T16:58:09;3.00;3.00;3.00
74086;PMS7003;62445;48.406;-4.518;2023-02-05T17:00:49;2.75;2.75;2.00
74086;PMS7003;62445;48.406;-4.518;2023-02-05T17:03:16;4.00;3.00;2.75
74086;PMS7003;62445;48.406;-4.518;2023-02-05T17:05:42;3.50;3.25;3.00
74086;PMS7003;62445;48.406;-4.518;2023-02-05T17:08:09;4.00;4.00;3.00
74086;PMS7003;62445;48.406;-4.518;2023-02-05T17:16:46;2.50;2.50;2.00
74086;PMS7003;62445;48.406;-4.518;2023-02-05T17:21:31;2.25;2.25;1.75
74086;PMS7003;62445;48.406;-4.518;2023-02-05T17:24:01;3.50;3.00;3.00
74086;PMS7003;62445;48.406;-4.518;2023-02-05T17:26:31;2.00;2.00;2.00
74086;PMS7003;62445;48.406;-4.518;2023-02-05T17:29:00;3.75;2.50;2.00
74086;PMS7003;62445;48.406;-4.518;2023-02-05T17:31:35;2.25;2.25;2.00
74086;PMS7003;62445;48.406;-4.518;2023-02-05T17:34:02;2.00;2.00;1.75
74086;PMS7003;62445;48.406;-4.518;2023-02-05T17:36:28;2.25;2.25;2.00
74086;PMS7003;62445;48.406;-4.518;2023-02-05T17:38:53;3.00;2.75;2.25
74086;PMS7003;62445;48.406;-4.518;2023-02-05T17:41:20;4.75;3.00;2.50
74086;PMS7003;62445;48.406;-4.518;2023-02-05T17:44:15;3.00;3.00;2.00
74086;PMS7003;62445;48.406;-4.518;2023-02-05T17:46:41;2.25;2.25;2.00